createdAt,value
2022-10-23T00:00:24.495Z,91.92
2022-10-23T00:02:27.174Z,92.21
2022-10-23T00:04:29.837Z,92.43
2022-10-23T00:06:35.058Z,93.04
2022-10-23T00:08:37.954Z,93.17
2022-10-23T00:10:42.467Z,93.16
2022-10-23T00:12:45.389Z,93.99
2022-10-23T00:14:48.103Z,93.86
2022-10-23T00:16:51.068Z,93.98
2022-10-23T00:18:53.786Z,92.94
2022-10-23T00:20:57.135Z,93.25
2022-10-23T00:23:01.160Z,94.24
2022-10-23T00:25:03.886Z,93.41
2022-10-23T00:27:06.530Z,93.54
2022-10-23T00:29:09.823Z,93.62
2022-10-23T00:31:12.821Z,93.47
2022-10-23T00:33:15.465Z,94.44
2022-10-23T00:35:18.199Z,94.23
2022-10-23T00:37:20.865Z,94.10
2022-10-23T00:39:24.829Z,94.13
2022-10-23T00:41:29.954Z,94.26
2022-10-23T00:43:34.545Z,94.11
2022-10-23T00:45:37.179Z,93.87
2022-10-23T00:47:39.987Z,94.41
2022-10-23T00:49:42.919Z,94.40
2022-10-23T00:51:49.931Z,93.77
2022-10-23T00:54:06.704Z,94.46
2022-10-23T00:56:22.574Z,93.88
2022-10-23T00:58:25.214Z,94.93
2022-10-23T01:02:59.206Z,94.94
2022-10-23T01:05:06.799Z,95.11
2022-10-23T01:07:16.054Z,95.28
2022-10-23T01:09:25.301Z,95.12
2022-10-23T01:11:36.341Z,94.74
2022-10-23T01:13:45.544Z,94.75
2022-10-23T01:15:54.590Z,95.32
2022-10-23T01:18:03.316Z,95.45
2022-10-23T01:20:21.661Z,94.91
2022-10-23T01:22:50.808Z,95.33
2022-10-23T01:24:59.176Z,95.39
2022-10-23T01:27:27.630Z,94.75
2022-10-23T01:29:37.757Z,94.43
2022-10-23T01:31:46.060Z,94.61
2022-10-23T01:33:52.474Z,95.38
2022-10-23T01:36:01.422Z,94.60
2022-10-23T01:38:08.697Z,95.17
2022-10-23T01:40:21.312Z,95.06
2022-10-23T01:42:30.177Z,94.77
2022-10-23T01:44:37.509Z,94.82
2022-10-23T01:46:41.170Z,95.09
2022-10-23T01:48:51.281Z,94.44
2022-10-23T01:50:56.773Z,94.74
2022-10-23T01:52:59.860Z,94.86
2022-10-23T01:55:02.982Z,94.52
2022-10-23T01:57:09.476Z,94.36
2022-10-23T01:59:15.936Z,95.19
2022-10-23T02:01:24.484Z,94.78
2022-10-23T02:03:30.097Z,94.43
2022-10-23T02:05:33.270Z,94.78
2022-10-23T02:07:37.130Z,95.05
2022-10-23T02:09:40.413Z,94.36
2022-10-23T02:11:51.476Z,94.80
2022-10-23T02:14:00.868Z,94.65
2022-10-23T02:16:11.852Z,94.61
2022-10-23T02:18:27.900Z,94.13
2022-10-23T02:20:36.982Z,93.78
2022-10-23T02:22:43.449Z,94.01
2022-10-23T02:24:51.086Z,93.42
2022-10-23T02:26:56.780Z,94.35
2022-10-23T02:29:07.095Z,94.11
2022-10-23T02:31:13.600Z,93.72
2022-10-23T02:33:18.811Z,93.86
2022-10-23T02:35:24.232Z,94.10
2022-10-23T02:37:26.942Z,93.60
2022-10-23T02:39:30.178Z,93.82
2022-10-23T02:41:42.544Z,93.83
2022-10-23T02:43:58.521Z,93.55
2022-10-23T02:46:11.248Z,93.93
2022-10-23T02:48:23.597Z,93.74
2022-10-23T02:50:34.061Z,93.56
2022-10-23T02:52:42.960Z,93.43
2022-10-23T02:54:58.936Z,93.86
2022-10-23T02:57:06.487Z,93.71
2022-10-23T02:59:18.457Z,94.04
2022-10-23T03:01:27.300Z,93.52
2022-10-23T03:03:36.690Z,94.18
2022-10-23T03:05:41.647Z,94.13
2022-10-23T03:07:45.477Z,93.54
2022-10-23T03:09:48.294Z,93.82
2022-10-23T03:11:50.973Z,93.66
2022-10-23T03:13:53.820Z,93.94
2022-10-23T03:15:56.448Z,93.67
2022-10-23T03:17:59.054Z,93.71
2022-10-23T03:20:03.106Z,93.87
2022-10-23T03:22:05.790Z,94.19
2022-10-23T03:24:08.724Z,94.62
2022-10-23T03:26:11.373Z,94.17
2022-10-23T03:28:14.002Z,94.21
2022-10-23T03:30:16.745Z,94.70
2022-10-23T03:32:19.401Z,93.93
2022-10-23T03:34:22.136Z,94.08
2022-10-23T03:36:26.254Z,93.90
2022-10-23T03:38:28.924Z,93.93
2022-10-23T03:40:31.729Z,94.02
2022-10-23T03:42:34.331Z,94.14
2022-10-23T03:44:37.003Z,94.12
2022-10-23T03:46:40.582Z,94.19
2022-10-23T03:48:43.308Z,94.63
2022-10-23T03:50:45.938Z,93.99
2022-10-23T03:52:49.997Z,94.49
2022-10-23T03:54:52.746Z,93.71
2022-10-23T03:56:57.513Z,94.46
2022-10-23T03:59:03.912Z,94.35
2022-10-23T04:01:06.657Z,94.13
2022-10-23T04:03:09.319Z,94.11
2022-10-23T04:05:12.046Z,93.92
2022-10-23T04:07:14.717Z,93.75
2022-10-23T04:09:18.721Z,94.00
2022-10-23T04:11:21.399Z,93.85
2022-10-23T04:13:24.024Z,94.24
2022-10-23T04:15:26.649Z,94.35
2022-10-23T04:17:29.336Z,93.62
2022-10-23T04:19:32.126Z,94.53
2022-10-23T04:21:35.003Z,93.82
2022-10-23T04:23:38.198Z,94.03
2022-10-23T04:25:42.281Z,94.65
2022-10-23T04:27:45.227Z,94.34
2022-10-23T04:29:49.128Z,93.18
2022-10-23T04:31:52.354Z,93.41
2022-10-23T04:33:55.148Z,93.69
2022-10-23T04:35:56.844Z,94.25
2022-10-23T04:37:59.528Z,94.28
2022-10-23T04:40:02.138Z,93.92
2022-10-23T04:42:06.287Z,93.43
2022-10-23T04:44:09.367Z,93.62
2022-10-23T04:46:11.992Z,93.38
2022-10-23T04:48:14.626Z,93.82
2022-10-23T04:50:17.626Z,93.30
2022-10-23T04:52:20.292Z,93.60
2022-10-23T04:54:22.895Z,93.79
2022-10-23T04:56:25.568Z,94.11
2022-10-23T04:58:30.332Z,94.34
2022-10-23T05:00:33.073Z,93.65
2022-10-23T05:02:35.861Z,94.40
2022-10-23T05:04:38.701Z,93.78
2022-10-23T05:06:41.332Z,93.75
2022-10-23T05:08:43.935Z,94.09
2022-10-23T05:10:46.577Z,93.83
2022-10-23T05:12:49.226Z,93.42
2022-10-23T05:14:53.319Z,93.89
2022-10-23T05:17:00.024Z,93.65
2022-10-23T05:19:03.329Z,93.39
2022-10-23T05:21:11.299Z,93.34
2022-10-23T05:23:17.648Z,94.13
2022-10-23T05:25:20.657Z,94.21
2022-10-23T05:27:23.282Z,93.60
2022-10-23T05:29:25.997Z,93.92
2022-10-23T05:31:30.310Z,93.81
2022-10-23T05:33:34.050Z,93.78
2022-10-23T05:35:37.805Z,92.81
2022-10-23T05:37:44.887Z,93.65
2022-10-23T05:39:47.529Z,92.89
2022-10-23T05:41:51.155Z,92.62
2022-10-23T05:43:54.130Z,92.90
2022-10-23T05:45:56.805Z,93.03
2022-10-23T05:48:10.896Z,93.42
2022-10-23T05:50:19.608Z,93.56
2022-10-23T05:52:22.206Z,93.81
2022-10-23T05:54:24.895Z,93.61
2022-10-23T05:56:27.578Z,93.09
2022-10-23T05:58:30.252Z,92.75
2022-10-23T06:00:33.071Z,93.42
2022-10-23T06:02:35.833Z,92.55
2022-10-23T06:04:39.940Z,92.81
2022-10-23T06:06:42.727Z,92.95
2022-10-23T06:08:45.339Z,93.15
2022-10-23T06:10:48.017Z,93.55
2022-10-23T06:12:50.636Z,93.57
2022-10-23T06:14:53.284Z,92.72
2022-10-23T06:16:55.893Z,93.39
2022-10-23T06:18:58.661Z,93.62
2022-10-23T06:21:02.755Z,92.92
2022-10-23T06:23:05.539Z,93.61
2022-10-23T06:25:09.518Z,93.71
2022-10-23T06:27:12.197Z,92.86
2022-10-23T06:29:14.870Z,93.30
2022-10-23T06:31:19.131Z,92.84
2022-10-23T06:33:21.762Z,92.91
2022-10-23T06:35:24.510Z,93.23
2022-10-23T06:37:28.497Z,93.34
2022-10-23T06:39:32.297Z,93.20
2022-10-23T06:41:35.121Z,92.56
2022-10-23T06:43:37.786Z,92.07
2022-10-23T06:45:40.476Z,91.36
2022-10-23T06:47:43.457Z,91.69
2022-10-23T06:49:46.283Z,91.28
2022-10-23T06:51:48.952Z,91.34
2022-10-23T06:53:52.885Z,91.04
2022-10-23T06:56:00.600Z,90.54
2022-10-23T06:58:03.262Z,90.22
2022-10-23T07:00:07.061Z,90.25
2022-10-23T07:02:10.230Z,89.01
2022-10-23T07:04:13.672Z,89.02
2022-10-23T07:06:16.486Z,88.85
2022-10-23T07:08:19.112Z,88.71
2022-10-23T07:10:23.227Z,88.39
2022-10-23T07:12:26.049Z,88.07
2022-10-23T07:14:32.068Z,88.11
2022-10-23T07:16:34.669Z,88.08
2022-10-23T07:18:37.379Z,87.15
2022-10-23T07:20:39.993Z,87.45
2022-10-23T07:22:42.842Z,87.10
2022-10-23T07:24:45.621Z,86.08
2022-10-23T07:28:55.100Z,85.66
2022-10-23T07:30:58.906Z,87.84
2022-10-23T07:33:01.523Z,86.28
2022-10-23T07:35:04.533Z,85.40
2022-10-23T07:37:07.251Z,85.63
2022-10-23T07:39:10.032Z,86.71
2022-10-23T07:41:13.142Z,88.08
2022-10-23T07:43:18.357Z,87.62
2022-10-23T07:45:21.145Z,88.00
2022-10-23T07:47:23.756Z,88.36
2022-10-23T07:49:26.527Z,88.28
2022-10-23T07:51:29.311Z,87.96
2022-10-23T07:53:32.033Z,87.06
2022-10-23T07:55:34.667Z,86.95
2022-10-23T07:57:39.622Z,86.41
2022-10-23T07:59:43.649Z,85.79
2022-10-23T08:01:49.511Z,85.01
2022-10-23T08:03:54.155Z,84.39
2022-10-23T08:05:57.190Z,85.50
2022-10-23T08:07:59.800Z,84.89
2022-10-23T08:10:02.467Z,84.59
2022-10-23T08:12:05.388Z,84.89
2022-10-23T08:14:08.280Z,83.85
2022-10-23T08:16:12.410Z,83.68
2022-10-23T08:18:15.694Z,83.26
2022-10-23T08:20:18.468Z,82.86
2022-10-23T08:22:21.132Z,83.11
2022-10-23T08:24:24.255Z,82.52
2022-10-23T08:26:29.278Z,82.97
2022-10-23T08:28:33.249Z,81.56
2022-10-23T08:30:36.314Z,82.40
2022-10-23T08:32:40.503Z,81.79
2022-10-23T08:34:43.168Z,81.16
2022-10-23T08:36:45.814Z,81.08
2022-10-23T08:38:48.531Z,80.62
2022-10-23T08:40:51.298Z,81.42
2022-10-23T08:43:00.883Z,79.71
2022-10-23T08:45:09.019Z,80.24
2022-10-23T08:47:15.593Z,78.83
2022-10-23T08:49:30.601Z,78.24
2022-10-23T08:51:42.357Z,77.10
2022-10-23T08:53:53.326Z,77.14
2022-10-23T08:56:03.033Z,76.89
2022-10-23T08:58:08.362Z,76.33
2022-10-23T09:00:15.072Z,75.70
2022-10-23T09:02:21.577Z,75.64
2022-10-23T09:04:25.764Z,74.82
2022-10-23T09:06:37.901Z,74.38
2022-10-23T09:08:48.566Z,74.84
2022-10-23T09:11:04.952Z,74.43
2022-10-23T09:13:22.694Z,73.24
2022-10-23T09:15:31.515Z,74.13
2022-10-23T09:17:35.625Z,72.58
2022-10-23T09:19:39.631Z,72.72
2022-10-23T09:21:42.358Z,72.55
2022-10-23T09:23:45.036Z,72.82
2022-10-23T09:25:50.877Z,72.66
2022-10-23T09:27:57.430Z,72.27
2022-10-23T09:30:02.643Z,71.83
2022-10-23T09:32:07.584Z,71.43
2022-10-23T09:34:20.672Z,70.21
2022-10-23T09:36:25.932Z,71.37
2022-10-23T09:38:32.639Z,70.72
2022-10-23T09:40:41.627Z,69.87
2022-10-23T09:42:56.042Z,69.63
2022-10-23T09:44:58.761Z,70.73
2022-10-23T09:47:11.102Z,70.26
2022-10-23T09:49:19.193Z,70.61
2022-10-23T09:51:24.584Z,68.83
2022-10-23T09:53:32.425Z,70.67
2022-10-23T09:55:35.355Z,70.19
2022-10-23T09:57:43.301Z,70.91
2022-10-23T09:59:52.218Z,72.24
2022-10-23T10:01:57.729Z,71.24
2022-10-23T10:04:00.687Z,69.78
2022-10-23T10:06:05.473Z,68.77
2022-10-23T10:08:19.138Z,68.78
2022-10-23T10:10:21.941Z,69.44
2022-10-23T10:12:35.618Z,69.82
2022-10-23T10:14:52.759Z,70.54
2022-10-23T10:16:59.774Z,70.74
2022-10-23T10:19:08.241Z,70.64
2022-10-23T10:21:18.321Z,68.56
2022-10-23T10:23:29.643Z,70.39
2022-10-23T10:25:37.858Z,68.48
2022-10-23T10:27:53.496Z,66.85
2022-10-23T10:30:05.249Z,66.05
2022-10-23T10:32:25.039Z,65.93
2022-10-23T10:34:31.317Z,66.50
2022-10-23T10:36:45.169Z,66.67
2022-10-23T10:38:52.454Z,67.16
2022-10-23T10:41:19.190Z,67.77
2022-10-23T10:43:32.934Z,67.05
2022-10-23T10:45:39.557Z,68.37
2022-10-23T10:47:51.677Z,67.42
2022-10-23T10:50:07.911Z,68.99
2022-10-23T10:52:15.861Z,68.61
2022-10-23T10:54:34.947Z,68.15
2022-10-23T10:56:40.804Z,66.77
2022-10-23T10:58:48.989Z,67.73
2022-10-23T11:00:57.032Z,67.93
2022-10-23T11:03:03.662Z,67.55
2022-10-23T11:05:15.999Z,68.50
2022-10-23T11:07:23.382Z,69.05
2022-10-23T11:09:29.979Z,67.52
2022-10-23T11:11:40.489Z,68.63
2022-10-23T11:13:44.950Z,68.97
2022-10-23T11:15:48.157Z,67.67
2022-10-23T11:17:55.114Z,67.76
2022-10-23T11:20:04.041Z,68.28
2022-10-23T11:22:13.307Z,67.71
2022-10-23T11:24:55.778Z,67.09
2022-10-23T11:27:27.131Z,67.62
2022-10-23T11:29:51.709Z,66.75
2022-10-23T11:32:07.411Z,67.15
2022-10-23T11:34:38.421Z,66.46
2022-10-23T11:36:47.759Z,66.08
2022-10-23T11:38:53.012Z,66.03
2022-10-23T11:40:58.220Z,66.75
2022-10-23T11:43:02.308Z,64.77
2022-10-23T11:45:05.761Z,67.05
2022-10-23T11:47:36.301Z,66.54
2022-10-23T11:49:40.828Z,66.05
2022-10-23T11:51:43.570Z,66.30
2022-10-23T11:53:46.201Z,67.35
2022-10-23T11:56:00.770Z,66.22
2022-10-23T11:58:21.270Z,68.10
2022-10-23T12:00:25.234Z,66.76
2022-10-23T12:02:32.609Z,67.47
2022-10-23T12:04:42.089Z,68.56
2022-10-23T12:06:48.661Z,67.63
2022-10-23T12:08:54.181Z,68.16
2022-10-23T12:10:56.817Z,67.14
2022-10-23T12:13:01.860Z,66.50
2022-10-23T12:15:19.750Z,65.78
2022-10-23T12:17:35.734Z,66.43
2022-10-23T12:19:49.002Z,66.41
2022-10-23T12:21:53.737Z,67.84
2022-10-23T12:24:31.971Z,68.62
2022-10-23T12:26:45.692Z,67.57
2022-10-23T12:28:55.728Z,68.26
2022-10-23T12:31:12.353Z,66.80
2022-10-23T12:33:22.448Z,67.44
2022-10-23T12:35:54.686Z,65.38
2022-10-23T12:38:09.588Z,65.32
2022-10-23T12:40:13.326Z,63.57
2022-10-23T12:42:20.606Z,63.17
2022-10-23T12:44:25.239Z,62.94
2022-10-23T12:46:37.487Z,62.04
2022-10-23T12:48:49.492Z,61.71
2022-10-23T12:50:54.576Z,61.10
2022-10-23T12:52:59.039Z,61.91
2022-10-23T12:55:02.063Z,61.85
2022-10-23T12:57:20.060Z,61.07
2022-10-23T12:59:27.078Z,61.09
2022-10-23T13:01:31.077Z,61.57
2022-10-23T13:03:36.300Z,60.83
2022-10-23T13:05:39.124Z,61.32
2022-10-23T13:07:46.428Z,60.97
2022-10-23T13:09:49.716Z,61.00
2022-10-23T13:11:53.228Z,60.90
2022-10-23T13:13:55.902Z,61.09
2022-10-23T13:15:58.549Z,59.85
2022-10-23T13:18:03.548Z,61.97
2022-10-23T13:20:20.216Z,60.06
2022-10-23T13:22:23.662Z,62.54
2022-10-23T13:24:28.606Z,61.68
2022-10-23T13:26:33.849Z,60.14
2022-10-23T13:28:43.760Z,60.58
2022-10-23T13:30:57.758Z,61.23
2022-10-23T13:33:00.910Z,60.67
2022-10-23T13:35:04.330Z,61.07
2022-10-23T13:37:26.833Z,65.22
2022-10-23T13:39:31.752Z,61.81
2022-10-23T13:41:38.123Z,61.82
2022-10-23T13:43:41.010Z,62.14
2022-10-23T13:45:43.639Z,62.11
2022-10-23T13:47:46.489Z,62.36
2022-10-23T13:49:49.261Z,62.55
2022-10-23T13:51:53.445Z,63.18
2022-10-23T13:53:59.458Z,63.63
2022-10-23T13:56:02.079Z,64.19
2022-10-23T13:58:04.740Z,63.32
2022-10-23T14:00:09.270Z,62.13
2022-10-23T14:02:20.481Z,63.61
2022-10-23T14:04:23.869Z,65.11
2022-10-23T14:06:26.740Z,63.16
2022-10-23T14:08:29.359Z,62.89
2022-10-23T14:10:33.770Z,63.04
2022-10-23T14:12:41.279Z,62.66
2022-10-23T14:14:44.066Z,62.06
2022-10-23T14:16:46.684Z,62.39
2022-10-23T14:18:49.343Z,63.98
2022-10-23T14:20:51.983Z,64.05
2022-10-23T14:22:54.631Z,63.61
2022-10-23T14:24:58.006Z,63.07
2022-10-23T14:27:02.010Z,63.89
2022-10-23T14:29:08.946Z,64.73
2022-10-23T14:31:16.502Z,65.15
2022-10-23T14:33:19.134Z,63.28
2022-10-23T14:35:22.043Z,65.59
2022-10-23T14:37:24.632Z,65.01
2022-10-23T14:39:27.229Z,64.87
2022-10-23T14:41:29.902Z,64.45
2022-10-23T14:43:33.931Z,65.46
2022-10-23T14:45:37.475Z,65.88
2022-10-23T14:47:40.084Z,67.20
2022-10-23T14:49:42.888Z,67.45
2022-10-23T14:51:45.586Z,66.60
2022-10-23T14:53:49.538Z,66.69
2022-10-23T14:55:52.151Z,66.50
2022-10-23T14:57:55.928Z,66.66
2022-10-23T14:59:59.898Z,67.63
2022-10-23T15:02:02.605Z,66.86
2022-10-23T15:04:05.543Z,65.71
2022-10-23T15:06:08.734Z,67.82
2022-10-23T15:08:11.356Z,68.19
2022-10-23T15:10:14.263Z,66.57
2022-10-23T15:12:16.912Z,69.60
2022-10-23T15:14:19.970Z,68.72
2022-10-23T15:16:24.902Z,68.40
2022-10-23T15:18:27.623Z,69.48
2022-10-23T15:20:30.248Z,69.13
2022-10-23T15:22:32.910Z,70.76
2022-10-23T15:24:35.599Z,71.05
2022-10-23T15:26:38.533Z,69.40
2022-10-23T15:28:41.161Z,70.58
2022-10-23T15:30:45.554Z,69.87
2022-10-23T15:32:49.584Z,69.59
2022-10-23T15:34:53.696Z,69.94
2022-10-23T15:36:57.824Z,69.65
2022-10-23T15:39:00.850Z,69.87
2022-10-23T15:41:15.256Z,70.66
2022-10-23T15:43:18.346Z,71.12
2022-10-23T15:45:21.065Z,69.78
2022-10-23T15:47:23.722Z,69.29
2022-10-23T15:49:30.471Z,70.08
2022-10-23T15:51:33.266Z,69.00
2022-10-23T15:53:35.898Z,69.82
2022-10-23T15:55:38.512Z,68.17
2022-10-23T15:57:42.076Z,69.39
2022-10-23T15:59:44.707Z,70.87
2022-10-23T16:01:47.446Z,71.23
2022-10-23T16:03:50.162Z,72.16
2022-10-23T16:05:54.158Z,71.48
2022-10-23T16:07:56.756Z,72.17
2022-10-23T16:09:59.794Z,72.98
2022-10-23T16:12:02.572Z,74.67
2022-10-23T16:14:06.043Z,74.38
2022-10-23T16:16:09.243Z,75.73
2022-10-23T16:18:13.048Z,75.73
2022-10-23T16:20:16.056Z,76.47
2022-10-23T16:22:20.080Z,77.55
2022-10-23T16:24:22.729Z,77.06
2022-10-23T16:26:25.986Z,76.38
2022-10-23T16:28:28.608Z,75.86
2022-10-23T16:30:31.363Z,76.80
2022-10-23T16:32:34.006Z,78.34
2022-10-23T16:34:36.614Z,78.08
2022-10-23T16:36:39.402Z,78.40
2022-10-23T16:38:43.466Z,77.92
2022-10-23T16:40:52.632Z,75.86
2022-10-23T16:42:55.279Z,75.51
2022-10-23T16:44:57.957Z,75.02
2022-10-23T16:47:00.680Z,74.29
2022-10-23T16:49:04.114Z,74.59
2022-10-23T16:51:08.109Z,75.13
2022-10-23T16:53:10.749Z,74.12
2022-10-23T16:55:14.770Z,75.07
2022-10-23T16:57:17.732Z,75.84
2022-10-23T16:59:20.370Z,77.48
2022-10-23T17:01:24.584Z,78.59
2022-10-23T17:03:27.533Z,77.89
2022-10-23T17:05:33.485Z,80.10
2022-10-23T17:07:37.135Z,79.94
2022-10-23T17:09:39.766Z,82.05
2022-10-23T17:11:46.789Z,81.99
2022-10-23T17:13:53.974Z,81.58
2022-10-23T17:16:09.265Z,82.41
2022-10-23T17:18:11.872Z,83.86
2022-10-23T17:20:14.592Z,83.48
2022-10-23T17:22:17.281Z,84.10
2022-10-23T17:24:20.715Z,84.41
2022-10-23T17:26:23.510Z,84.57
2022-10-23T17:28:28.474Z,84.85
2022-10-23T17:30:31.081Z,84.74
2022-10-23T17:32:35.558Z,86.88
2022-10-23T17:34:38.224Z,86.75
2022-10-23T17:36:43.777Z,86.61
2022-10-23T17:38:46.914Z,85.54
2022-10-23T17:40:49.538Z,86.34
2022-10-23T17:42:52.262Z,87.03
2022-10-23T17:44:56.396Z,87.47
2022-10-23T17:46:59.120Z,87.93
2022-10-23T17:49:03.970Z,86.99
2022-10-23T17:51:09.151Z,88.20
2022-10-23T17:53:11.780Z,88.30
2022-10-23T17:55:14.641Z,88.92
2022-10-23T17:57:17.293Z,89.68
2022-10-23T17:59:20.228Z,89.46
2022-10-23T18:01:26.144Z,89.88
2022-10-23T18:03:28.929Z,90.39
2022-10-23T18:05:33.279Z,90.24
2022-10-23T18:07:35.964Z,90.33
2022-10-23T18:09:38.615Z,90.16
2022-10-23T18:11:45.459Z,90.24
2022-10-23T18:13:51.630Z,89.81
2022-10-23T18:15:54.236Z,89.88
2022-10-23T18:17:58.267Z,90.06
2022-10-23T18:20:02.195Z,89.81
2022-10-23T18:22:05.050Z,90.19
2022-10-23T18:24:08.318Z,89.86
2022-10-23T18:26:16.596Z,89.41
2022-10-23T18:28:19.817Z,89.70
2022-10-23T18:30:22.505Z,90.07
2022-10-23T18:32:25.921Z,90.29
2022-10-23T18:34:29.895Z,89.78
2022-10-23T18:36:34.594Z,89.99
2022-10-23T18:38:37.305Z,89.79
2022-10-23T18:40:40.956Z,89.52
2022-10-23T18:42:43.793Z,89.66
2022-10-23T18:44:49.886Z,90.39
2022-10-23T18:46:53.352Z,90.32
2022-10-23T18:48:56.169Z,90.77
2022-10-23T18:51:01.041Z,91.34
2022-10-23T18:53:03.985Z,91.32
2022-10-23T18:55:08.318Z,91.41
2022-10-23T18:57:10.979Z,91.45
2022-10-23T19:01:38.170Z,91.47
2022-10-23T19:03:40.933Z,91.09
2022-10-23T19:05:44.305Z,90.75
2022-10-23T19:07:55.632Z,90.55
2022-10-23T19:10:09.920Z,90.02
2022-10-23T19:12:34.248Z,88.80
2022-10-23T19:14:58.276Z,89.32
2022-10-23T19:17:03.941Z,89.54
2022-10-23T19:19:12.313Z,89.77
2022-10-23T19:21:15.547Z,90.58
2022-10-23T19:23:19.546Z,91.10
2022-10-23T19:25:26.169Z,90.90
2022-10-23T19:27:29.382Z,90.70
2022-10-23T19:29:32.967Z,90.28
2022-10-23T19:31:35.693Z,90.10
2022-10-23T19:33:39.323Z,90.27
2022-10-23T19:35:42.197Z,90.26
2022-10-23T19:37:45.158Z,90.67
2022-10-23T19:39:49.328Z,90.47
2022-10-23T19:41:52.518Z,90.78
2022-10-23T19:43:55.139Z,90.22
2022-10-23T19:45:59.458Z,90.22
2022-10-23T19:48:02.152Z,89.56
2022-10-23T19:50:05.492Z,89.39
2022-10-23T19:52:08.254Z,89.44
2022-10-23T19:54:11.120Z,89.18
2022-10-23T19:56:15.110Z,89.51
2022-10-23T19:58:18.732Z,90.28
2022-10-23T20:00:21.419Z,90.86
2022-10-23T20:02:24.167Z,90.53
2022-10-23T20:04:28.728Z,91.37
2022-10-23T20:06:34.488Z,91.12
2022-10-23T20:08:37.210Z,91.44
2022-10-23T20:10:42.170Z,91.41
2022-10-23T20:12:56.370Z,91.15
2022-10-23T20:14:59.842Z,91.24
2022-10-23T20:17:02.602Z,91.34
2022-10-23T20:19:07.108Z,91.47
2022-10-23T20:21:09.869Z,91.20
2022-10-23T20:23:12.596Z,90.84
2022-10-23T20:25:15.173Z,90.61
2022-10-23T20:27:18.602Z,90.89
2022-10-23T20:29:24.593Z,91.16
2022-10-23T20:31:28.788Z,91.49
2022-10-23T20:33:31.404Z,91.83
2022-10-23T20:35:39.018Z,91.87
2022-10-23T20:37:41.939Z,91.91
2022-10-23T20:39:44.747Z,91.47
2022-10-23T20:41:48.245Z,91.43
2022-10-23T20:43:50.927Z,90.19
2022-10-23T20:45:54.899Z,89.84
2022-10-23T20:47:58.291Z,89.92
2022-10-23T20:50:00.896Z,90.10
2022-10-23T20:52:03.716Z,90.26
2022-10-23T20:54:06.978Z,89.94
2022-10-23T20:56:13.772Z,89.27
2022-10-23T20:58:16.365Z,88.90
2022-10-23T21:00:19.071Z,88.37
2022-10-23T21:02:23.193Z,87.53
2022-10-23T21:04:28.609Z,85.47
2022-10-23T21:06:45.759Z,85.27
2022-10-23T21:08:57.395Z,86.44
2022-10-23T21:11:00.333Z,85.50
2022-10-23T21:13:02.943Z,85.27
2022-10-23T21:15:06.422Z,84.95
2022-10-23T21:17:11.909Z,86.23
2022-10-23T21:19:17.184Z,85.88
2022-10-23T21:21:22.059Z,86.95
2022-10-23T21:23:24.635Z,85.44
2022-10-23T21:25:27.414Z,85.38
2022-10-23T21:27:30.106Z,83.44
2022-10-23T21:29:32.686Z,83.51
2022-10-23T21:31:36.091Z,83.64
2022-10-23T21:33:38.741Z,84.50
2022-10-23T21:35:52.272Z,84.76
2022-10-23T21:38:00.809Z,85.53
2022-10-23T21:40:03.469Z,86.00
2022-10-23T21:42:06.212Z,85.50
2022-10-23T21:44:08.853Z,85.87
2022-10-23T21:46:13.324Z,85.88
2022-10-23T21:48:15.896Z,85.53
2022-10-23T21:50:18.509Z,85.77
2022-10-23T21:52:22.576Z,86.18
2022-10-23T21:54:25.192Z,87.27
2022-10-23T21:56:32.036Z,88.03
2022-10-23T21:58:34.633Z,88.73
2022-10-23T22:00:37.230Z,88.96
2022-10-23T22:02:39.910Z,89.23
2022-10-23T22:04:42.626Z,89.61
2022-10-23T22:06:46.680Z,88.02
2022-10-23T22:08:51.812Z,88.34
2022-10-23T22:10:54.820Z,87.79
2022-10-23T22:12:57.428Z,88.23
2022-10-23T22:15:00.087Z,88.85
2022-10-23T22:17:02.725Z,88.30
2022-10-23T22:19:05.653Z,87.98
2022-10-23T22:21:11.289Z,88.79
2022-10-23T22:23:13.915Z,89.07
2022-10-23T22:25:18.141Z,89.15
2022-10-23T22:27:20.732Z,89.08
2022-10-23T22:29:25.809Z,89.05
2022-10-23T22:31:30.713Z,89.21
2022-10-23T22:33:33.310Z,89.49
2022-10-23T22:35:35.932Z,88.64
2022-10-23T22:37:38.548Z,88.51
2022-10-23T22:39:41.316Z,88.35
2022-10-23T22:41:45.400Z,89.03
2022-10-23T22:43:48.484Z,89.19
2022-10-23T22:45:51.081Z,89.43
2022-10-23T22:47:53.649Z,89.80
2022-10-23T22:49:56.252Z,90.23
2022-10-23T22:51:58.866Z,90.18
2022-10-23T22:54:01.535Z,90.54
2022-10-23T22:56:07.475Z,90.84
2022-10-23T22:58:11.434Z,90.27
2022-10-23T23:00:15.057Z,89.29
2022-10-23T23:02:17.757Z,89.28
2022-10-23T23:06:42.887Z,88.27
2022-10-23T23:08:46.763Z,88.71
2022-10-23T23:10:53.262Z,86.77
2022-10-23T23:12:55.870Z,86.67
2022-10-23T23:15:02.000Z,86.39
2022-10-23T23:17:05.987Z,85.68
2022-10-23T23:19:08.669Z,87.63
2022-10-23T23:21:11.259Z,86.66
2022-10-23T23:23:14.347Z,87.47
2022-10-23T23:25:17.030Z,87.14
2022-10-23T23:27:19.618Z,86.37
2022-10-23T23:29:22.640Z,86.72
2022-10-23T23:31:27.876Z,87.75
2022-10-23T23:33:30.453Z,87.12
2022-10-23T23:35:33.119Z,86.89
2022-10-23T23:37:35.733Z,87.13
2022-10-23T23:39:38.334Z,86.43
2022-10-23T23:41:40.896Z,86.93
2022-10-23T23:43:44.162Z,87.00
2022-10-23T23:45:46.842Z,87.32
2022-10-23T23:47:50.822Z,87.09
2022-10-23T23:49:53.415Z,86.42
2022-10-23T23:51:55.968Z,86.57
2022-10-23T23:53:58.585Z,87.63
2022-10-23T23:56:01.228Z,85.41
2022-10-23T23:58:03.832Z,86.17
